Time;durP1;ratioP1;P1;durP2;ratioP2;P2;SDS_P1;SDS_P2;PMS_P1;PMS_P2;Temp;Humidity;BMP_temperature;BMP_pressure;BME280_temperature;BME280_humidity;BME280_pressure;Samples;Min_cycle;Max_cycle;Signal;HPM_P1;HPM_P2
2021/05/24 00:01:08;;;;;;;2.92;1.00;;;13.80;76.70;;;;;;5021863;28;20033;-88
2021/05/24 00:03:34;;;;;;;2.05;0.93;;;13.80;76.80;;;;;;5021860;28;20035;-89
2021/05/24 00:05:59;;;;;;;1.55;0.55;;;13.80;77.00;;;;;;5037272;23;20487;-85
2021/05/24 00:08:25;;;;;;;2.88;1.00;;;13.80;77.10;;;;;;5066615;28;20033;-85
2021/05/24 00:10:51;;;;;;;2.45;0.90;;;13.80;76.70;;;;;;5064440;28;20126;-85
2021/05/24 00:13:18;;;;;;;2.67;0.80;;;13.80;77.00;;;;;;5077482;28;20020;-85
2021/05/24 00:15:54;;;;;;;3.50;0.95;;;13.80;77.10;;;;;;5073291;28;20036;-85
2021/05/24 00:18:19;;;;;;;2.22;0.85;;;13.80;77.00;;;;;;5072332;28;20024;-85
2021/05/24 00:20:51;;;;;;;4.25;1.20;;;13.80;77.20;;;;;;5092753;28;20032;-85
2021/05/24 00:23:16;;;;;;;2.05;0.70;;;13.80;76.60;;;;;;5089298;28;20013;-85
2021/05/24 00:25:42;;;;;;;7.40;1.15;;;13.80;76.90;;;;;;5054062;28;20036;-85
2021/05/24 00:28:13;;;;;;;2.38;1.13;;;13.80;76.80;;;;;;5052366;28;20033;-85
2021/05/24 00:30:39;;;;;;;2.08;0.90;;;13.80;77.40;;;;;;5056049;28;20086;-85
2021/05/24 00:33:06;;;;;;;3.75;1.25;;;13.80;76.80;;;;;;5072349;28;20113;-85
2021/05/24 00:35:32;;;;;;;2.13;1.02;;;13.80;76.50;;;;;;5071942;28;20028;-85
2021/05/24 00:37:58;;;;;;;3.35;1.02;;;13.80;76.70;;;;;;5075289;28;20024;-85
2021/05/24 00:40:24;;;;;;;1.88;0.70;;;13.80;76.80;;;;;;5082339;28;20033;-85
2021/05/24 00:42:49;;;;;;;2.33;0.88;;;13.80;76.70;;;;;;5055250;28;20115;-85
2021/05/24 00:45:15;;;;;;;3.58;0.90;;;13.90;76.90;;;;;;5051836;28;20033;-85
2021/05/24 00:47:42;;;;;;;2.38;0.80;;;13.80;76.90;;;;;;5062490;28;20473;-85
2021/05/24 00:50:09;;;;;;;3.15;0.80;;;13.80;76.50;;;;;;5094622;28;20020;-85
2021/05/24 00:52:35;;;;;;;3.78;0.80;;;13.90;76.40;;;;;;5076425;28;20078;-85
2021/05/24 00:55:02;;;;;;;2.50;0.68;;;13.90;76.70;;;;;;5071509;28;20497;-85
2021/05/24 00:57:28;;;;;;;1.77;0.73;;;13.90;76.10;;;;;;5068443;28;20547;-86
2021/05/24 00:59:55;;;;;;;2.15;0.77;;;13.90;76.70;;;;;;5054945;28;20020;-85
2021/05/24 01:02:21;;;;;;;3.72;0.93;;;13.90;76.50;;;;;;5071598;28;20024;-85
2021/05/24 01:04:47;;;;;;;2.60;0.90;;;13.90;76.70;;;;;;5071138;28;20053;-86
2021/05/24 01:07:12;;;;;;;2.10;0.77;;;14.00;76.70;;;;;;5064266;28;20033;-86
2021/05/24 01:09:38;;;;;;;1.00;0.50;;;14.00;76.70;;;;;;5034206;28;20032;-85
2021/05/24 01:12:04;;;;;;;1.90;0.70;;;14.00;76.50;;;;;;5033936;28;20043;-86
2021/05/24 01:14:30;;;;;;;3.58;0.90;;;14.00;76.50;;;;;;5050666;28;20047;-85
2021/05/24 01:16:56;;;;;;;2.08;0.70;;;14.00;76.70;;;;;;5054217;28;20028;-86
2021/05/24 01:19:23;;;;;;;4.22;0.70;;;14.00;76.70;;;;;;5079389;28;20103;-86
2021/05/24 01:21:50;;;;;;;2.10;0.73;;;14.00;77.20;;;;;;5073479;28;20021;-86
2021/05/24 01:24:18;;;;;;;2.97;0.68;;;14.00;77.20;;;;;;5056301;28;20460;-86
2021/05/24 01:26:44;;;;;;;2.53;0.70;;;14.00;76.80;;;;;;5091531;28;20035;-86
2021/05/24 01:29:10;;;;;;;3.42;0.70;;;14.10;76.80;;;;;;5089143;28;20035;-85
2021/05/24 01:31:36;;;;;;;1.55;0.60;;;14.10;77.40;;;;;;5070279;28;20474;-85
2021/05/24 01:34:03;;;;;;;1.30;0.70;;;14.10;77.20;;;;;;5084143;28;20028;-85
2021/05/24 01:36:29;;;;;;;2.63;0.70;;;14.10;77.00;;;;;;5090677;28;20024;-86
2021/05/24 01:38:55;;;;;;;3.38;0.90;;;14.10;77.20;;;;;;5058772;28;20033;-85
2021/05/24 01:41:21;;;;;;;1.98;0.88;;;14.10;77.40;;;;;;5053754;28;20020;-85
2021/05/24 01:43:47;;;;;;;4.13;1.05;;;14.10;78.00;;;;;;5070337;28;20068;-85
2021/05/24 01:46:14;;;;;;;2.55;0.75;;;14.00;77.30;;;;;;5070211;28;20060;-86
2021/05/24 01:48:41;;;;;;;1.60;0.80;;;14.10;77.20;;;;;;5053502;28;20385;-85
2021/05/24 01:51:08;;;;;;;5.10;1.25;;;14.10;77.60;;;;;;5050284;28;20036;-85
2021/05/24 01:53:35;;;;;;;2.80;0.80;;;14.00;77.50;;;;;;5039902;28;20029;-85
2021/05/24 01:56:02;;;;;;;2.75;0.82;;;14.00;77.80;;;;;;5050015;28;20029;-86
2021/05/24 01:58:28;;;;;;;1.42;0.63;;;14.00;78.00;;;;;;5070243;28;20031;-85
2021/05/24 02:01:04;;;;;;;2.40;0.90;;;14.00;78.00;;;;;;5050468;28;20025;-86
2021/05/24 02:03:30;;;;;;;3.00;0.65;;;14.00;78.20;;;;;;5073607;28;20024;-85
2021/05/24 02:05:55;;;;;;;3.55;0.70;;;14.00;78.00;;;;;;5038680;28;639610;-86
2021/05/24 02:08:21;;;;;;;1.25;0.63;;;14.00;78.10;;;;;;5045962;28;20080;-85
2021/05/24 02:10:47;;;;;;;3.42;0.88;;;14.00;78.50;;;;;;5059800;28;20469;-85
2021/05/24 02:13:12;;;;;;;2.47;0.47;;;13.90;78.20;;;;;;5050752;28;20071;-85
2021/05/24 02:15:40;;;;;;;2.88;0.82;;;13.90;78.40;;;;;;5067310;28;20063;-85
2021/05/24 02:18:06;;;;;;;1.75;0.73;;;13.90;78.60;;;;;;5070565;28;20032;-85
2021/05/24 02:20:34;;;;;;;2.10;0.80;;;13.90;78.80;;;;;;5070860;28;20037;-85
2021/05/24 02:23:01;;;;;;;5.60;0.77;;;13.90;78.90;;;;;;5074540;28;20021;-85
2021/05/24 02:25:27;;;;;;;3.40;0.80;;;13.90;79.10;;;;;;5081834;28;20037;-86
2021/05/24 02:27:53;;;;;;;1.92;0.80;;;13.90;79.20;;;;;;5072687;28;20029;-85
2021/05/24 02:30:22;;;;;;;2.17;0.77;;;13.80;79.20;;;;;;5091177;28;20043;-84
2021/05/24 02:32:48;;;;;;;2.95;0.90;;;13.80;79.60;;;;;;5090640;28;20035;-85
2021/05/24 02:35:16;;;;;;;1.80;0.68;;;13.80;79.60;;;;;;5070823;28;20025;-85
2021/05/24 02:37:43;;;;;;;1.95;0.82;;;13.80;80.00;;;;;;5052118;28;20425;-85
2021/05/24 02:40:11;;;;;;;2.05;0.70;;;13.80;80.20;;;;;;5077427;28;20468;-85
2021/05/24 02:42:37;;;;;;;2.00;0.70;;;13.80;80.40;;;;;;5101710;28;20056;-85
2021/05/24 02:45:05;;;;;;;1.15;0.65;;;13.70;80.80;;;;;;5086808;28;20024;-85
2021/05/24 02:47:31;;;;;;;2.33;0.70;;;13.70;80.60;;;;;;5054328;28;20068;-85
2021/05/24 02:49:57;;;;;;;3.17;0.90;;;13.70;80.70;;;;;;5070664;28;20389;-84
2021/05/24 02:52:23;;;;;;;1.05;0.40;;;13.70;80.80;;;;;;5060045;28;20036;-85
2021/05/24 02:54:48;;;;;;;3.33;0.70;;;13.70;81.10;;;;;;5053873;28;20135;-85
2021/05/24 02:57:14;;;;;;;3.28;0.90;;;13.60;81.40;;;;;;5068560;28;20103;-85
2021/05/24 02:59:40;;;;;;;1.67;0.50;;;13.60;81.20;;;;;;5064137;28;20055;-85
2021/05/24 03:02:07;;;;;;;2.78;0.73;;;13.60;81.20;;;;;;5055811;28;20538;-85
2021/05/24 03:04:33;;;;;;;1.10;0.68;;;13.50;81.30;;;;;;5073669;28;20128;-86
2021/05/24 03:06:58;;;;;;;2.40;0.70;;;13.50;81.60;;;;;;5057069;28;20056;-85
2021/05/24 03:09:24;;;;;;;1.88;0.70;;;13.50;81.40;;;;;;5056940;28;20059;-86
2021/05/24 03:11:51;;;;;;;1.42;0.50;;;13.50;81.30;;;;;;5073856;28;20024;-85
2021/05/24 03:14:16;;;;;;;3.47;0.90;;;13.40;81.40;;;;;;5059717;28;20044;-85
2021/05/24 03:16:43;;;;;;;2.42;0.70;;;13.40;81.80;;;;;;5053990;28;20474;-85
2021/05/24 03:19:09;;;;;;;2.95;0.82;;;13.40;81.80;;;;;;5073542;28;20017;-85
2021/05/24 03:21:34;;;;;;;1.73;0.80;;;13.30;82.00;;;;;;5073414;28;20012;-85
2021/05/24 03:24:00;;;;;;;4.05;0.90;;;13.30;82.20;;;;;;5073648;28;20040;-85
2021/05/24 03:26:26;;;;;;;4.15;0.98;;;13.30;82.50;;;;;;5056544;28;20109;-86
2021/05/24 03:28:51;;;;;;;3.35;0.65;;;13.30;82.60;;;;;;5056849;28;20546;-85
2021/05/24 03:31:17;;;;;;;2.65;0.90;;;13.30;82.70;;;;;;5056561;28;20032;-85
2021/05/24 03:33:43;;;;;;;3.47;0.82;;;13.30;83.10;;;;;;5073203;28;20507;-85
2021/05/24 03:36:09;;;;;;;1.65;0.90;;;13.30;83.20;;;;;;5056579;28;20024;-85
2021/05/24 03:38:35;;;;;;;1.63;0.68;;;13.20;82.90;;;;;;5065989;28;20556;-85
2021/05/24 03:41:03;;;;;;;3.92;0.82;;;13.20;82.90;;;;;;5063699;28;20496;-86
2021/05/24 03:43:29;;;;;;;3.78;0.85;;;13.20;83.30;;;;;;5087453;28;20500;-86
2021/05/24 03:45:55;;;;;;;3.45;0.90;;;13.20;83.20;;;;;;5068733;28;20024;-85
2021/05/24 03:48:20;;;;;;;3.30;0.88;;;13.20;82.90;;;;;;5059065;28;20447;-86
2021/05/24 03:50:46;;;;;;;3.10;0.85;;;13.20;83.40;;;;;;5063800;28;20021;-85
2021/05/24 03:53:12;;;;;;;2.15;0.70;;;13.10;83.70;;;;;;5035524;28;20492;-85
2021/05/24 03:55:37;;;;;;;1.90;0.80;;;13.10;83.70;;;;;;5057199;28;20056;-86
2021/05/24 03:58:03;;;;;;;2.13;0.90;;;13.20;84.20;;;;;;5080741;28;20020;-86
2021/05/24 04:00:29;;;;;;;1.52;0.73;;;13.10;84.60;;;;;;5078882;28;20020;-85
2021/05/24 04:02:55;;;;;;;1.80;0.65;;;13.10;84.20;;;;;;5078088;28;20025;-86
2021/05/24 04:05:26;;;;;;;2.33;0.70;;;13.10;84.40;;;;;;5055884;28;20401;-85
2021/05/24 04:07:56;;;;;;;4.47;0.80;;;13.10;84.50;;;;;;5063245;28;20024;-85
2021/05/24 04:10:35;;;;;;;1.85;0.70;;;13.10;84.50;;;;;;5080264;28;20063;-85
2021/05/24 04:13:01;;;;;;;0.75;0.50;;;13.20;84.60;;;;;;5059866;28;20078;-85
2021/05/24 04:15:27;;;;;;;4.57;0.75;;;13.20;85.20;;;;;;5072506;28;20111;-85
2021/05/24 04:17:57;;;;;;;2.55;0.80;;;13.10;85.20;;;;;;5069185;28;20108;-85
2021/05/24 04:20:24;;;;;;;3.65;1.20;;;13.20;85.40;;;;;;5064187;28;20469;-85
2021/05/24 04:22:50;;;;;;;1.05;0.57;;;13.10;85.30;;;;;;5059472;28;20376;-85
2021/05/24 04:25:16;;;;;;;4.18;0.80;;;13.10;85.30;;;;;;5092491;28;20031;-85
2021/05/24 04:27:43;;;;;;;2.85;0.70;;;13.10;85.50;;;;;;5090777;28;20028;-85
2021/05/24 04:30:11;;;;;;;1.77;0.80;;;13.10;85.60;;;;;;5072212;28;20051;-85
2021/05/24 04:32:37;;;;;;;3.95;0.60;;;13.10;85.60;;;;;;5071444;28;20033;-84
2021/05/24 04:35:04;;;;;;;2.03;0.80;;;13.10;85.80;;;;;;5085570;28;20036;-85
2021/05/24 04:37:30;;;;;;;2.05;0.73;;;13.10;86.20;;;;;;5067212;28;20020;-85
2021/05/24 04:39:56;;;;;;;3.47;0.85;;;13.10;86.20;;;;;;5080583;28;20047;-85
2021/05/24 04:42:22;;;;;;;2.53;0.65;;;13.10;86.20;;;;;;5082850;28;20032;-85
2021/05/24 04:44:48;;;;;;;2.55;0.98;;;13.10;86.10;;;;;;5089539;28;20028;-86
2021/05/24 04:47:32;;;;;;;2.13;0.82;;;13.10;86.10;;;;;;5071866;28;20039;-85
2021/05/24 04:49:58;;;;;;;2.50;0.50;;;13.10;86.10;;;;;;5070027;28;20028;-85
2021/05/24 04:52:24;;;;;;;2.60;1.02;;;13.00;86.40;;;;;;5066301;28;20042;-85
2021/05/24 04:54:50;;;;;;;3.78;0.93;;;13.00;86.60;;;;;;5053849;28;20416;-85
2021/05/24 04:57:15;;;;;;;3.25;0.70;;;13.00;86.70;;;;;;5036479;28;20041;-85
2021/05/24 04:59:41;;;;;;;3.72;0.88;;;13.00;86.70;;;;;;5071258;28;20040;-85
2021/05/24 05:02:07;;;;;;;1.67;0.70;;;13.00;87.00;;;;;;5038605;28;20844;-85
2021/05/24 05:04:33;;;;;;;1.50;0.60;;;13.00;87.10;;;;;;5057087;28;20392;-85
2021/05/24 05:06:59;;;;;;;4.65;0.90;;;13.00;87.10;;;;;;5054904;28;20448;-85
2021/05/24 05:09:25;;;;;;;2.22;0.80;;;13.00;87.40;;;;;;5055689;28;20024;-86
2021/05/24 05:12:03;;;;;;;3.90;0.82;;;13.00;87.50;;;;;;5071709;28;20052;-85
2021/05/24 05:14:29;;;;;;;2.42;0.80;;;13.00;87.70;;;;;;5074261;28;20153;-86
2021/05/24 05:16:55;;;;;;;3.50;0.95;;;13.00;87.60;;;;;;5067052;28;20066;-83
2021/05/24 05:19:27;;;;;;;1.60;0.60;;;13.00;87.70;;;;;;5070011;28;20025;-85
2021/05/24 05:21:52;;;;;;;2.33;0.68;;;13.00;88.10;;;;;;5054210;28;20107;-85
2021/05/24 05:24:19;;;;;;;2.08;0.68;;;13.00;88.20;;;;;;5051654;28;20128;-84
2021/05/24 05:26:45;;;;;;;1.75;0.68;;;13.00;88.10;;;;;;5077034;28;20039;-85
2021/05/24 05:29:10;;;;;;;4.15;1.00;;;13.10;88.10;;;;;;5076017;28;20032;-84
2021/05/24 05:31:36;;;;;;;3.88;1.00;;;13.10;88.20;;;;;;5079729;28;20035;-85
2021/05/24 05:34:03;;;;;;;1.60;0.57;;;13.10;88.20;;;;;;5067583;28;20032;-84
2021/05/24 05:36:29;;;;;;;1.58;0.73;;;13.10;88.50;;;;;;5077686;28;20032;-84
2021/05/24 05:38:55;;;;;;;3.33;0.88;;;13.10;88.10;;;;;;5060288;28;20124;-84
2021/05/24 05:41:21;;;;;;;1.90;0.80;;;13.10;88.40;;;;;;5069171;28;20025;-84
2021/05/24 05:43:47;;;;;;;2.42;0.68;;;13.10;88.40;;;;;;5065936;28;20082;-84
2021/05/24 05:46:13;;;;;;;2.45;0.80;;;13.10;88.40;;;;;;5052086;28;20028;-84
2021/05/24 05:48:39;;;;;;;3.80;1.00;;;13.10;88.40;;;;;;5068675;28;20170;-84
2021/05/24 05:51:06;;;;;;;2.35;0.60;;;13.20;88.50;;;;;;5067193;28;20103;-84
2021/05/24 05:53:32;;;;;;;2.40;0.77;;;13.20;88.40;;;;;;5092339;28;20049;-84
2021/05/24 05:55:58;;;;;;;3.05;1.20;;;13.20;88.50;;;;;;5074363;28;20063;-84
2021/05/24 05:58:24;;;;;;;3.03;0.77;;;13.20;88.60;;;;;;5073892;28;20036;-84
2021/05/24 06:00:50;;;;;;;2.08;0.75;;;13.20;88.90;;;;;;5050827;28;20025;-84
2021/05/24 06:03:16;;;;;;;5.70;0.90;;;13.20;88.50;;;;;;5054907;28;20028;-85
2021/05/24 06:05:41;;;;;;;3.65;1.08;;;13.30;88.70;;;;;;5055897;22;20132;-88
2021/05/24 06:08:07;;;;;;;2.45;0.60;;;13.30;88.60;;;;;;5023157;28;20014;-89
2021/05/24 06:10:34;;;;;;;2.38;0.77;;;13.40;88.50;;;;;;5004764;28;20033;-89
2021/05/24 06:12:59;;;;;;;2.72;0.75;;;13.40;88.30;;;;;;5022968;28;20025;-88
2021/05/24 06:15:25;;;;;;;2.35;0.88;;;13.40;88.50;;;;;;5023805;28;20022;-90
2021/05/24 06:17:51;;;;;;;3.33;0.93;;;13.50;88.60;;;;;;5007359;28;20021;-90
2021/05/24 06:20:17;;;;;;;3.72;0.70;;;13.50;88.50;;;;;;5007785;28;20030;-89
2021/05/24 06:22:43;;;;;;;2.78;0.65;;;13.50;88.30;;;;;;4994449;28;20490;-89
2021/05/24 06:25:10;;;;;;;1.58;0.65;;;13.50;88.00;;;;;;5024492;28;20151;-89
2021/05/24 06:27:37;;;;;;;2.75;0.70;;;13.50;88.00;;;;;;5024194;28;20029;-89
2021/05/24 06:30:09;;;;;;;3.47;1.15;;;13.50;87.80;;;;;;5024482;28;20026;-89
2021/05/24 06:32:35;;;;;;;3.03;1.00;;;13.60;88.20;;;;;;5015107;28;20030;-89
2021/05/24 06:35:02;;;;;;;3.20;0.80;;;13.60;88.40;;;;;;5023141;28;20052;-89
2021/05/24 06:37:27;;;;;;;2.47;0.82;;;13.70;88.40;;;;;;5018039;28;20049;-89
2021/05/24 06:39:53;;;;;;;2.83;0.68;;;13.70;88.40;;;;;;5011959;28;20013;-89
2021/05/24 06:42:19;;;;;;;2.30;0.68;;;13.70;88.40;;;;;;5011063;28;20069;-89
2021/05/24 06:44:45;;;;;;;4.32;0.95;;;13.70;88.10;;;;;;5023913;28;20025;-88
2021/05/24 06:47:11;;;;;;;3.70;1.05;;;13.70;88.20;;;;;;5021987;28;20076;-88
2021/05/24 06:49:37;;;;;;;3.85;1.00;;;13.80;88.30;;;;;;5019885;28;20038;-88
2021/05/24 06:52:03;;;;;;;2.35;0.70;;;13.80;87.60;;;;;;5003800;28;20029;-88
2021/05/24 06:54:31;;;;;;;3.45;1.00;;;13.80;86.00;;;;;;5003331;28;20029;-89
2021/05/24 06:56:57;;;;;;;1.75;0.40;;;13.80;86.10;;;;;;5007682;28;20036;-92
2021/05/24 06:59:23;;;;;;;1.55;0.50;;;13.80;85.60;;;;;;5008960;28;20025;-88
2021/05/24 07:01:48;;;;;;;1.27;0.60;;;13.80;86.20;;;;;;5003959;28;20470;-87
2021/05/24 07:04:14;;;;;;;2.58;0.38;;;13.80;86.30;;;;;;5017418;28;20046;-88
2021/05/24 07:06:40;;;;;;;0.77;0.50;;;13.80;85.90;;;;;;5020911;28;20049;-88
2021/05/24 07:09:07;;;;;;;1.02;0.40;;;13.80;85.90;;;;;;5004467;28;20174;-87
2021/05/24 07:11:32;;;;;;;2.78;0.52;;;13.80;86.20;;;;;;5011006;28;20026;-88
2021/05/24 07:13:58;;;;;;;1.98;0.55;;;13.80;86.40;;;;;;5010728;28;20025;-89
2021/05/24 07:16:23;;;;;;;2.88;0.82;;;13.80;86.50;;;;;;5007124;28;20471;-89
2021/05/24 07:18:49;;;;;;;1.73;0.55;;;13.70;86.60;;;;;;5003999;28;20022;-88
2021/05/24 07:21:15;;;;;;;3.22;1.02;;;13.70;87.00;;;;;;4979813;28;20494;-89
2021/05/24 07:23:40;;;;;;;3.40;0.75;;;13.70;87.10;;;;;;5002456;28;20036;-89
2021/05/24 07:26:06;;;;;;;1.13;0.50;;;13.70;87.20;;;;;;5039189;28;20112;-89
2021/05/24 07:28:32;;;;;;;1.83;0.85;;;13.70;87.30;;;;;;5019233;28;20036;-90
2021/05/24 07:30:58;;;;;;;2.42;0.80;;;13.60;87.60;;;;;;5001022;28;20467;-91
2021/05/24 07:33:23;;;;;;;0.82;0.60;;;13.60;87.70;;;;;;5019412;28;20451;-88
2021/05/24 07:35:52;;;;;;;0.57;0.55;;;13.60;87.90;;;;;;4968334;28;20120;-88
2021/05/24 07:38:18;;;;;;;2.38;0.70;;;13.60;88.20;;;;;;5026484;28;20033;-88
2021/05/24 07:40:44;;;;;;;2.40;0.80;;;13.50;88.50;;;;;;5008220;28;20026;-88
2021/05/24 07:43:10;;;;;;;2.70;1.00;;;13.50;88.80;;;;;;5008928;28;20022;-87
2021/05/24 07:45:36;;;;;;;2.28;0.75;;;13.50;89.00;;;;;;5026200;28;20025;-87
2021/05/24 07:48:01;;;;;;;2.55;0.93;;;13.40;89.40;;;;;;5039917;28;20021;-87
2021/05/24 07:50:27;;;;;;;5.28;0.90;;;13.40;89.80;;;;;;5013625;28;20071;-90
2021/05/24 07:52:53;;;;;;;2.40;0.80;;;13.40;90.00;;;;;;5011889;28;20497;-88
2021/05/24 07:55:19;;;;;;;1.15;0.80;;;13.40;90.10;;;;;;4997961;28;20144;-87
2021/05/24 07:57:44;;;;;;;1.50;0.75;;;13.40;90.40;;;;;;5038720;28;20505;-89
2021/05/24 08:00:11;;;;;;;2.75;0.90;;;13.40;90.40;;;;;;5007071;28;20417;-89
2021/05/24 08:02:41;;;;;;;1.70;0.80;;;13.40;90.60;;;;;;5043202;28;20017;-89
2021/05/24 08:05:09;;;;;;;2.78;0.88;;;13.40;90.60;;;;;;5029417;28;20080;-89
2021/05/24 08:07:35;;;;;;;1.63;0.68;;;13.40;90.50;;;;;;5019979;28;20029;-89
2021/05/24 08:10:02;;;;;;;2.65;1.02;;;13.40;90.90;;;;;;5011691;28;20077;-90
2021/05/24 08:12:27;;;;;;;4.25;1.00;;;13.40;90.90;;;;;;5010628;28;20056;-90
2021/05/24 08:14:53;;;;;;;1.80;0.93;;;13.40;90.70;;;;;;5012880;28;20068;-89
2021/05/24 08:17:19;;;;;;;2.03;0.80;;;13.30;90.80;;;;;;5022147;28;20101;-90
2021/05/24 08:19:48;;;;;;;1.13;0.63;;;13.30;90.90;;;;;;4992429;28;20439;-89
2021/05/24 08:22:13;;;;;;;3.10;0.90;;;13.30;91.20;;;;;;5007571;28;20075;-89
2021/05/24 08:24:39;;;;;;;2.10;0.85;;;13.30;91.60;;;;;;5031437;28;20030;-89
2021/05/24 08:27:05;;;;;;;2.83;0.90;;;13.30;91.50;;;;;;5010446;28;20025;-90
2021/05/24 08:29:31;;;;;;;1.70;0.90;;;13.30;91.90;;;;;;5010472;28;20094;-91
2021/05/24 08:31:56;;;;;;;2.97;1.30;;;13.30;91.80;;;;;;5015849;28;20432;-90
2021/05/24 08:34:23;;;;;;;3.67;0.90;;;13.30;91.60;;;;;;4990760;28;20029;-91
2021/05/24 08:36:48;;;;;;;4.10;0.73;;;13.30;91.70;;;;;;4997358;28;20072;-89
2021/05/24 08:39:14;;;;;;;1.90;1.02;;;13.30;91.90;;;;;;5027207;28;20414;-89
2021/05/24 08:41:40;;;;;;;1.40;0.73;;;13.30;92.30;;;;;;4995181;28;20032;-93
2021/05/24 08:44:08;;;;;;;2.85;1.05;;;13.30;92.20;;;;;;4997583;28;20447;-90
2021/05/24 08:46:36;;;;;;;4.95;1.10;;;13.30;92.40;;;;;;5013736;28;20021;-90
2021/05/24 08:49:03;;;;;;;2.63;1.02;;;13.30;92.50;;;;;;5020049;28;20120;-90
2021/05/24 08:51:29;;;;;;;2.72;1.10;;;13.30;92.60;;;;;;5020605;28;20116;-89
2021/05/24 08:53:54;;;;;;;1.30;0.95;;;13.30;92.70;;;;;;5024849;28;20056;-89
2021/05/24 08:56:20;;;;;;;2.28;1.00;;;13.30;92.80;;;;;;5021194;28;20022;-91
2021/05/24 08:58:46;;;;;;;4.10;1.58;;;13.30;93.10;;;;;;5008946;28;20037;-90
2021/05/24 09:01:12;;;;;;;2.55;1.33;;;13.30;92.90;;;;;;5007505;28;20037;-86
2021/05/24 09:03:39;;;;;;;3.30;1.42;;;13.30;92.70;;;;;;5001101;28;20048;-87
2021/05/24 09:06:12;;;;;;;5.68;1.77;;;13.30;92.80;;;;;;5008656;28;20049;-89
2021/05/24 09:08:40;;;;;;;2.78;0.95;;;13.30;93.00;;;;;;5024106;28;20029;-87
2021/05/24 09:11:29;;;;;;;4.18;1.42;;;13.30;92.00;;;;;;5019534;28;20100;-88
2021/05/24 09:13:55;;;;;;;3.55;1.23;;;13.10;92.30;;;;;;5034766;28;20021;-88
2021/05/24 09:16:29;;;;;;;2.80;0.93;;;13.10;92.60;;;;;;5033964;28;20390;-90
2021/05/24 09:19:11;;;;;;;3.78;1.27;;;13.00;92.60;;;;;;5017573;28;20053;-89
2021/05/24 09:21:38;;;;;;;3.08;1.20;;;12.90;92.80;;;;;;5017232;28;20029;-88
2021/05/24 09:24:19;;;;;;;4.22;0.82;;;12.80;92.50;;;;;;5020025;28;20021;-90
2021/05/24 09:26:45;;;;;;;2.13;0.90;;;12.80;93.10;;;;;;5028624;28;20049;-88
2021/05/24 09:29:11;;;;;;;2.15;1.10;;;12.70;93.00;;;;;;5031975;28;20036;-88
2021/05/24 09:31:38;;;;;;;2.80;1.10;;;12.70;93.30;;;;;;5006762;28;20243;-88
2021/05/24 09:34:06;;;;;;;1.33;0.80;;;12.70;93.50;;;;;;5029237;28;20040;-89
2021/05/24 09:36:34;;;;;;;1.85;0.95;;;12.80;93.30;;;;;;5005172;28;20079;-87
2021/05/24 09:39:04;;;;;;;3.03;0.98;;;12.80;93.30;;;;;;5009134;28;20423;-88
2021/05/24 09:41:43;;;;;;;3.57;1.10;;;12.80;93.60;;;;;;5022321;28;20026;-88
2021/05/24 09:44:18;;;;;;;5.00;1.45;;;12.90;93.80;;;;;;5019661;28;20359;-87
2021/05/24 09:46:44;;;;;;;3.03;1.10;;;12.90;93.80;;;;;;5016658;28;20021;-88
2021/05/24 09:49:12;;;;;;;3.10;0.80;;;12.90;93.80;;;;;;5016553;28;20036;-87
2021/05/24 09:51:47;;;;;;;3.78;0.98;;;13.00;93.30;;;;;;5033409;28;20029;-88
2021/05/24 09:54:13;;;;;;;3.78;1.10;;;13.00;93.00;;;;;;5016200;28;20474;-87
2021/05/24 09:56:43;;;;;;;3.85;1.17;;;13.00;93.30;;;;;;5018418;28;20068;-90
2021/05/24 09:59:21;;;;;;;4.35;1.45;;;13.00;93.20;;;;;;5017251;28;20108;-88
2021/05/24 10:01:55;;;;;;;6.40;1.38;;;13.00;93.30;;;;;;5025094;28;20053;-88
2021/05/24 10:04:26;;;;;;;4.25;1.15;;;13.00;93.40;;;;;;5009120;28;20025;-88
2021/05/24 10:06:52;;;;;;;1.58;0.90;;;12.90;93.50;;;;;;5016686;28;20025;-88
2021/05/24 10:09:19;;;;;;;5.47;1.52;;;12.90;93.60;;;;;;5014950;28;20064;-87
2021/05/24 10:11:47;;;;;;;4.75;1.42;;;12.90;93.60;;;;;;5004308;28;20029;-87
2021/05/24 10:14:15;;;;;;;2.67;1.20;;;12.90;93.30;;;;;;5016017;28;20443;-86
2021/05/24 10:16:47;;;;;;;3.28;1.50;;;12.90;93.80;;;;;;5000005;28;20047;-86
2021/05/24 10:19:17;;;;;;;4.40;1.30;;;12.90;93.60;;;;;;5035192;28;20071;-88
2021/05/24 10:21:43;;;;;;;4.15;1.30;;;12.90;93.80;;;;;;5036107;28;20060;-88
2021/05/24 10:24:09;;;;;;;3.83;1.40;;;12.90;94.20;;;;;;5020232;28;20025;-87
2021/05/24 10:26:37;;;;;;;5.10;1.40;;;12.90;93.90;;;;;;5020047;28;20184;-88
2021/05/24 10:29:04;;;;;;;4.20;1.17;;;13.00;93.90;;;;;;5017354;28;20475;-89
2021/05/24 10:31:32;;;;;;;2.50;1.30;;;13.00;94.10;;;;;;5016356;28;20026;-88
2021/05/24 10:34:12;;;;;;;5.95;1.08;;;13.00;94.00;;;;;;5015978;28;20022;-91
2021/05/24 10:36:38;;;;;;;2.58;1.10;;;13.10;94.10;;;;;;5016447;28;20400;-87
2021/05/24 10:39:21;;;;;;;2.70;1.15;;;13.20;94.40;;;;;;4999830;28;20026;-87
2021/05/24 10:41:57;;;;;;;3.35;1.30;;;13.30;94.30;;;;;;5016096;28;20067;-87
2021/05/24 10:44:26;;;;;;;4.35;1.00;;;13.30;94.30;;;;;;5016566;28;20029;-89
2021/05/24 10:47:13;;;;;;;2.85;1.30;;;13.40;94.20;;;;;;5016063;28;20116;-86
2021/05/24 10:50:04;;;;;;;3.70;1.33;;;13.40;94.10;;;;;;5016063;28;20487;-88
2021/05/24 10:52:35;;;;;;;2.28;1.40;;;13.50;94.20;;;;;;5016237;28;20021;-88
2021/05/24 10:55:21;;;;;;;3.42;1.48;;;13.50;93.90;;;;;;5016127;28;20033;-87
2021/05/24 10:57:55;;;;;;;2.45;1.15;;;13.50;94.00;;;;;;5015961;28;20490;-87
2021/05/24 11:00:20;;;;;;;2.28;1.40;;;13.50;94.00;;;;;;5019530;28;20025;-87
2021/05/24 11:02:52;;;;;;;2.75;1.25;;;13.50;94.20;;;;;;5019420;28;20034;-87
2021/05/24 11:05:30;;;;;;;2.80;1.20;;;13.50;94.40;;;;;;5007489;28;20435;-87
2021/05/24 11:07:57;;;;;;;2.75;1.10;;;13.40;94.40;;;;;;5018813;28;20033;-87
2021/05/24 11:10:26;;;;;;;2.55;1.23;;;13.50;94.80;;;;;;5025791;28;20390;-88
2021/05/24 11:13:07;;;;;;;0.82;0.77;;;13.40;94.90;;;;;;5031145;28;20044;-88
2021/05/24 11:15:35;;;;;;;1.75;0.60;;;13.40;94.60;;;;;;5045020;28;20096;-88
2021/05/24 11:18:04;;;;;;;2.97;1.00;;;13.30;94.40;;;;;;5019038;28;20045;-87
2021/05/24 11:20:38;;;;;;;3.03;0.80;;;13.40;95.00;;;;;;5046738;28;20463;-89
2021/05/24 11:25:54;;;;;;;1.88;0.60;;;13.40;95.30;;;;;;5040794;28;20540;-87
2021/05/24 11:28:30;;;;;;;2.15;0.60;;;13.40;94.90;;;;;;5021059;28;20084;-89
2021/05/24 11:31:16;;;;;;;1.77;0.50;;;13.40;94.70;;;;;;5019926;28;20873;-88
2021/05/24 11:33:51;;;;;;;0.77;0.43;;;13.40;94.70;;;;;;5033150;28;20083;-87
2021/05/24 11:36:38;;;;;;;1.65;0.90;;;13.40;94.40;;;;;;5026295;28;20037;-88
2021/05/24 11:39:22;;;;;;;1.95;0.57;;;13.40;95.00;;;;;;5022128;28;20084;-87
2021/05/24 11:42:06;;;;;;;3.00;0.73;;;13.40;94.80;;;;;;5050277;28;20016;-86
2021/05/24 11:44:41;;;;;;;0.40;0.40;;;13.40;94.80;;;;;;5040600;28;20040;-86
2021/05/24 11:47:13;;;;;;;2.13;0.60;;;13.40;94.80;;;;;;5032616;28;20183;-86
2021/05/24 11:49:41;;;;;;;1.08;0.55;;;13.50;94.40;;;;;;5020296;28;20025;-85
2021/05/24 11:52:11;;;;;;;1.70;0.65;;;13.50;94.70;;;;;;5020461;28;20064;-85
2021/05/24 11:54:38;;;;;;;1.40;0.70;;;13.50;95.00;;;;;;5021517;28;20057;-86
2021/05/24 11:57:09;;;;;;;2.00;0.60;;;13.60;95.00;;;;;;5023679;28;20041;-85
2021/05/24 11:59:37;;;;;;;0.82;0.50;;;13.70;94.90;;;;;;5027255;28;20371;-86
2021/05/24 12:02:06;;;;;;;1.17;0.43;;;13.70;94.10;;;;;;5038610;28;20026;-86
2021/05/24 12:04:36;;;;;;;1.85;0.52;;;13.80;93.30;;;;;;5023151;23;20071;-86
2021/05/24 12:07:05;;;;;;;0.55;0.32;;;13.80;93.50;;;;;;5024299;28;20033;-86
2021/05/24 12:09:42;;;;;;;0.88;0.40;;;13.90;92.80;;;;;;5053330;28;20382;-85
2021/05/24 12:12:17;;;;;;;2.58;0.30;;;13.90;92.40;;;;;;5035684;28;20024;-89
2021/05/24 12:14:55;;;;;;;0.68;0.40;;;13.90;91.70;;;;;;5048466;28;20534;-85
2021/05/24 12:17:26;;;;;;;2.88;0.50;;;13.90;91.30;;;;;;5055606;28;20024;-85
2021/05/24 12:19:54;;;;;;;0.75;0.40;;;13.90;91.40;;;;;;5056245;28;20021;-87
2021/05/24 12:22:26;;;;;;;1.55;0.50;;;13.90;92.10;;;;;;5040553;28;20020;-89
2021/05/24 12:24:53;;;;;;;0.65;0.30;;;13.90;92.00;;;;;;5039963;28;20065;-87
2021/05/24 12:27:21;;;;;;;1.52;0.70;;;13.90;92.00;;;;;;5023485;28;20025;-85
2021/05/24 12:29:50;;;;;;;0.77;0.60;;;14.00;92.10;;;;;;5045484;28;20025;-85
2021/05/24 12:32:35;;;;;;;0.85;0.45;;;14.00;91.80;;;;;;5073145;28;20096;-84
2021/05/24 12:35:10;;;;;;;1.85;0.40;;;14.00;91.10;;;;;;5065357;28;20025;-84
2021/05/24 12:37:39;;;;;;;0.85;0.30;;;14.10;91.30;;;;;;5039887;28;20115;-84
2021/05/24 12:40:07;;;;;;;0.40;0.40;;;14.10;91.50;;;;;;5053345;28;20373;-84
2021/05/24 12:42:42;;;;;;;1.23;0.60;;;14.20;91.90;;;;;;5048024;28;20029;-84
2021/05/24 12:45:11;;;;;;;1.40;0.60;;;14.20;91.90;;;;;;5071471;28;20113;-84
2021/05/24 12:47:37;;;;;;;1.65;0.70;;;14.30;91.90;;;;;;5047150;28;20032;-84
2021/05/24 12:50:16;;;;;;;1.77;0.70;;;14.30;92.00;;;;;;5063778;28;20036;-84
2021/05/24 12:52:43;;;;;;;1.05;0.60;;;14.30;91.70;;;;;;5045458;28;20052;-83
2021/05/24 12:55:10;;;;;;;1.50;0.60;;;14.40;92.00;;;;;;5040498;28;20466;-83